Terminal Aerodrome Forecast
Issued by NWS St Louis, MO

Home | Current Version | Previous Version | Text Only | Print | Product List | Glossary On
Versions: 1 2 3 4 5 6 7 8 9 10 11 12 13 14 15 16 17 18 19 20 21 22 23 24 25
000
FTUS43 KLSX 152149 AAB
TAFSTL
TAF AMD
KSTL 152149Z 1522/1624 28008KT P6SM FEW250
     FM160200 21005KT P6SM FEW250
     FM160600 21006KT P6SM FEW250 WS014/25040KT
     FM161500 21009KT P6SM SKC=

USA.gov is the U.S. government's official web portal to all federal, state and local government web resources and services.